sensor_id;sensor_type;location;lat;lon;timestamp;P1;durP1;ratioP1;P2;durP2;ratioP2
16804;SDS011;8520;50.102;20.010;2023-03-13T00:01:09;8.03;;;7.33;;
16804;SDS011;8520;50.102;20.010;2023-03-13T00:03:39;8.20;;;7.40;;
16804;SDS011;8520;50.102;20.010;2023-03-13T00:06:07;8.87;;;8.07;;
16804;SDS011;8520;50.102;20.010;2023-03-13T00:08:36;9.93;;;7.50;;
16804;SDS011;8520;50.102;20.010;2023-03-13T00:11:05;7.70;;;7.00;;
16804;SDS011;8520;50.102;20.010;2023-03-13T00:13:36;8.17;;;7.37;;
16804;SDS011;8520;50.102;20.010;2023-03-13T00:16:05;8.80;;;7.90;;
16804;SDS011;8520;50.102;20.010;2023-03-13T00:18:35;8.47;;;7.67;;
16804;SDS011;8520;50.102;20.010;2023-03-13T00:21:04;9.10;;;8.20;;
16804;SDS011;8520;50.102;20.010;2023-03-13T00:23:34;9.17;;;7.50;;
16804;SDS011;8520;50.102;20.010;2023-03-13T00:26:04;8.33;;;7.63;;
16804;SDS011;8520;50.102;20.010;2023-03-13T00:28:35;8.20;;;7.43;;
16804;SDS011;8520;50.102;20.010;2023-03-13T00:31:05;7.57;;;6.93;;
16804;SDS011;8520;50.102;20.010;2023-03-13T00:33:35;7.77;;;7.07;;
16804;SDS011;8520;50.102;20.010;2023-03-13T00:36:05;7.67;;;6.87;;
16804;SDS011;8520;50.102;20.010;2023-03-13T00:38:35;7.40;;;6.70;;
16804;SDS011;8520;50.102;20.010;2023-03-13T00:41:04;6.47;;;5.87;;
16804;SDS011;8520;50.102;20.010;2023-03-13T00:43:35;7.13;;;6.43;;
16804;SDS011;8520;50.102;20.010;2023-03-13T00:46:03;7.27;;;6.57;;
16804;SDS011;8520;50.102;20.010;2023-03-13T00:48:32;6.93;;;6.33;;
16804;SDS011;8520;50.102;20.010;2023-03-13T00:51:01;7.10;;;6.23;;
16804;SDS011;8520;50.102;20.010;2023-03-13T00:53:30;7.20;;;6.50;;
16804;SDS011;8520;50.102;20.010;2023-03-13T00:56:00;7.00;;;6.40;;
16804;SDS011;8520;50.102;20.010;2023-03-13T00:58:30;7.70;;;6.60;;
16804;SDS011;8520;50.102;20.010;2023-03-13T01:01:09;7.63;;;6.13;;
16804;SDS011;8520;50.102;20.010;2023-03-13T01:03:39;6.80;;;6.20;;
16804;SDS011;8520;50.102;20.010;2023-03-13T01:06:08;6.90;;;6.30;;
16804;SDS011;8520;50.102;20.010;2023-03-13T01:08:38;6.50;;;5.90;;
16804;SDS011;8520;50.102;20.010;2023-03-13T01:11:07;6.07;;;5.57;;
16804;SDS011;8520;50.102;20.010;2023-03-13T01:13:37;6.30;;;5.70;;
16804;SDS011;8520;50.102;20.010;2023-03-13T01:16:06;7.13;;;5.37;;
16804;SDS011;8520;50.102;20.010;2023-03-13T01:18:37;6.57;;;5.53;;
16804;SDS011;8520;50.102;20.010;2023-03-13T01:21:08;5.20;;;4.80;;
16804;SDS011;8520;50.102;20.010;2023-03-13T01:23:37;5.80;;;5.20;;
16804;SDS011;8520;50.102;20.010;2023-03-13T01:26:06;4.97;;;4.47;;
16804;SDS011;8520;50.102;20.010;2023-03-13T01:28:36;5.20;;;4.80;;
16804;SDS011;8520;50.102;20.010;2023-03-13T01:31:13;5.10;;;4.60;;
16804;SDS011;8520;50.102;20.010;2023-03-13T01:33:43;4.70;;;4.30;;
16804;SDS011;8520;50.102;20.010;2023-03-13T01:36:14;4.47;;;4.17;;
16804;SDS011;8520;50.102;20.010;2023-03-13T01:38:46;4.43;;;4.03;;
16804;SDS011;8520;50.102;20.010;2023-03-13T01:41:15;4.57;;;4.20;;
16804;SDS011;8520;50.102;20.010;2023-03-13T01:43:45;4.77;;;4.13;;
16804;SDS011;8520;50.102;20.010;2023-03-13T01:46:16;4.70;;;4.30;;
16804;SDS011;8520;50.102;20.010;2023-03-13T01:49:06;4.30;;;4.00;;
16804;SDS011;8520;50.102;20.010;2023-03-13T01:51:54;4.17;;;3.77;;
16804;SDS011;8520;50.102;20.010;2023-03-13T01:54:27;5.40;;;3.90;;
16804;SDS011;8520;50.102;20.010;2023-03-13T01:57:00;4.40;;;4.00;;
16804;SDS011;8520;50.102;20.010;2023-03-13T01:59:32;3.93;;;3.63;;
16804;SDS011;8520;50.102;20.010;2023-03-13T02:02:05;4.27;;;3.97;;
16804;SDS011;8520;50.102;20.010;2023-03-13T02:04:35;4.30;;;3.90;;
16804;SDS011;8520;50.102;20.010;2023-03-13T02:07:07;4.10;;;3.70;;
16804;SDS011;8520;50.102;20.010;2023-03-13T02:09:40;3.97;;;3.70;;
16804;SDS011;8520;50.102;20.010;2023-03-13T02:12:12;4.10;;;3.80;;
16804;SDS011;8520;50.102;20.010;2023-03-13T02:14:44;4.40;;;4.00;;
16804;SDS011;8520;50.102;20.010;2023-03-13T02:17:15;4.07;;;3.77;;
16804;SDS011;8520;50.102;20.010;2023-03-13T02:19:45;4.23;;;3.93;;
16804;SDS011;8520;50.102;20.010;2023-03-13T02:22:17;4.37;;;4.07;;
16804;SDS011;8520;50.102;20.010;2023-03-13T02:24:51;4.33;;;3.93;;
16804;SDS011;8520;50.102;20.010;2023-03-13T02:27:26;4.67;;;3.70;;
16804;SDS011;8520;50.102;20.010;2023-03-13T02:29:54;3.77;;;3.47;;
16804;SDS011;8520;50.102;20.010;2023-03-13T02:32:23;3.93;;;3.67;;
16804;SDS011;8520;50.102;20.010;2023-03-13T02:34:54;4.53;;;4.13;;
16804;SDS011;8520;50.102;20.010;2023-03-13T02:37:25;4.27;;;3.97;;
16804;SDS011;8520;50.102;20.010;2023-03-13T02:39:56;4.60;;;4.20;;
16804;SDS011;8520;50.102;20.010;2023-03-13T02:42:29;4.30;;;3.90;;
16804;SDS011;8520;50.102;20.010;2023-03-13T02:44:59;3.80;;;3.60;;
16804;SDS011;8520;50.102;20.010;2023-03-13T02:47:27;4.20;;;3.80;;
16804;SDS011;8520;50.102;20.010;2023-03-13T02:49:55;4.33;;;3.93;;
16804;SDS011;8520;50.102;20.010;2023-03-13T02:52:25;4.30;;;4.00;;
16804;SDS011;8520;50.102;20.010;2023-03-13T02:54:57;4.20;;;3.90;;
16804;SDS011;8520;50.102;20.010;2023-03-13T02:57:28;4.40;;;4.00;;
16804;SDS011;8520;50.102;20.010;2023-03-13T02:59:57;3.80;;;3.50;;
16804;SDS011;8520;50.102;20.010;2023-03-13T03:02:25;4.13;;;3.93;;
16804;SDS011;8520;50.102;20.010;2023-03-13T03:04:54;4.20;;;3.80;;
16804;SDS011;8520;50.102;20.010;2023-03-13T03:07:22;4.43;;;4.03;;
16804;SDS011;8520;50.102;20.010;2023-03-13T03:09:51;4.37;;;4.00;;
16804;SDS011;8520;50.102;20.010;2023-03-13T03:12:19;4.53;;;4.17;;
16804;SDS011;8520;50.102;20.010;2023-03-13T03:14:49;4.40;;;4.10;;
16804;SDS011;8520;50.102;20.010;2023-03-13T03:17:17;4.20;;;3.93;;
16804;SDS011;8520;50.102;20.010;2023-03-13T03:19:45;4.23;;;3.90;;
16804;SDS011;8520;50.102;20.010;2023-03-13T03:22:14;4.27;;;3.93;;
16804;SDS011;8520;50.102;20.010;2023-03-13T03:24:42;4.40;;;4.00;;
16804;SDS011;8520;50.102;20.010;2023-03-13T03:27:10;4.30;;;4.00;;
16804;SDS011;8520;50.102;20.010;2023-03-13T03:29:45;3.90;;;3.63;;
16804;SDS011;8520;50.102;20.010;2023-03-13T03:32:15;3.87;;;3.63;;
16804;SDS011;8520;50.102;20.010;2023-03-13T03:34:43;4.00;;;3.60;;
16804;SDS011;8520;50.102;20.010;2023-03-13T03:37:18;4.37;;;3.97;;
16804;SDS011;8520;50.102;20.010;2023-03-13T03:39:46;3.87;;;3.57;;
16804;SDS011;8520;50.102;20.010;2023-03-13T03:42:14;3.80;;;3.50;;
16804;SDS011;8520;50.102;20.010;2023-03-13T03:44:42;4.13;;;3.90;;
16804;SDS011;8520;50.102;20.010;2023-03-13T03:47:12;4.03;;;3.77;;
16804;SDS011;8520;50.102;20.010;2023-03-13T03:49:45;4.53;;;4.23;;
16804;SDS011;8520;50.102;20.010;2023-03-13T03:52:14;4.10;;;3.80;;
16804;SDS011;8520;50.102;20.010;2023-03-13T03:54:43;4.00;;;3.70;;
16804;SDS011;8520;50.102;20.010;2023-03-13T03:57:13;4.03;;;3.77;;
16804;SDS011;8520;50.102;20.010;2023-03-13T03:59:43;4.00;;;3.70;;
16804;SDS011;8520;50.102;20.010;2023-03-13T04:02:11;4.13;;;3.80;;
16804;SDS011;8520;50.102;20.010;2023-03-13T04:04:40;4.40;;;4.10;;
16804;SDS011;8520;50.102;20.010;2023-03-13T04:07:24;4.70;;;4.30;;
16804;SDS011;8520;50.102;20.010;2023-03-13T04:09:52;4.30;;;4.00;;
16804;SDS011;8520;50.102;20.010;2023-03-13T04:12:29;4.43;;;4.13;;
16804;SDS011;8520;50.102;20.010;2023-03-13T04:14:58;4.83;;;4.53;;
16804;SDS011;8520;50.102;20.010;2023-03-13T04:17:26;5.00;;;4.57;;
16804;SDS011;8520;50.102;20.010;2023-03-13T04:19:54;4.90;;;4.50;;
16804;SDS011;8520;50.102;20.010;2023-03-13T04:22:22;5.10;;;4.70;;
16804;SDS011;8520;50.102;20.010;2023-03-13T04:24:56;4.90;;;4.60;;
16804;SDS011;8520;50.102;20.010;2023-03-13T04:27:26;4.43;;;4.13;;
16804;SDS011;8520;50.102;20.010;2023-03-13T04:29:54;4.83;;;4.53;;
16804;SDS011;8520;50.102;20.010;2023-03-13T04:32:22;4.90;;;4.50;;
16804;SDS011;8520;50.102;20.010;2023-03-13T04:35:11;4.90;;;4.60;;
16804;SDS011;8520;50.102;20.010;2023-03-13T04:38:04;5.17;;;4.77;;
16804;SDS011;8520;50.102;20.010;2023-03-13T04:40:47;6.30;;;5.10;;
16804;SDS011;8520;50.102;20.010;2023-03-13T04:43:29;5.13;;;4.73;;
16804;SDS011;8520;50.102;20.010;2023-03-13T04:46:14;5.63;;;5.07;;
16804;SDS011;8520;50.102;20.010;2023-03-13T04:49:05;4.90;;;4.60;;
16804;SDS011;8520;50.102;20.010;2023-03-13T04:51:37;5.03;;;4.73;;
16804;SDS011;8520;50.102;20.010;2023-03-13T04:54:19;5.57;;;5.17;;
16804;SDS011;8520;50.102;20.010;2023-03-13T04:57:08;5.77;;;5.33;;
16804;SDS011;8520;50.102;20.010;2023-03-13T04:59:59;5.90;;;5.50;;
16804;SDS011;8520;50.102;20.010;2023-03-13T05:02:51;5.63;;;5.13;;
16804;SDS011;8520;50.102;20.010;2023-03-13T05:05:19;5.53;;;5.13;;
16804;SDS011;8520;50.102;20.010;2023-03-13T05:07:54;5.67;;;5.27;;
16804;SDS011;8520;50.102;20.010;2023-03-13T05:10:42;6.20;;;5.63;;
16804;SDS011;8520;50.102;20.010;2023-03-13T05:13:29;6.10;;;5.60;;
16804;SDS011;8520;50.102;20.010;2023-03-13T05:16:08;6.10;;;5.63;;
16804;SDS011;8520;50.102;20.010;2023-03-13T05:19:15;5.90;;;5.50;;
16804;SDS011;8520;50.102;20.010;2023-03-13T05:22:02;6.17;;;5.70;;
16804;SDS011;8520;50.102;20.010;2023-03-13T05:24:33;6.17;;;5.77;;
16804;SDS011;8520;50.102;20.010;2023-03-13T05:27:18;5.87;;;5.47;;
16804;SDS011;8520;50.102;20.010;2023-03-13T05:30:10;6.43;;;5.93;;
16804;SDS011;8520;50.102;20.010;2023-03-13T05:33:01;6.50;;;6.00;;
16804;SDS011;8520;50.102;20.010;2023-03-13T05:35:43;6.27;;;5.77;;
16804;SDS011;8520;50.102;20.010;2023-03-13T05:38:29;6.50;;;6.00;;
16804;SDS011;8520;50.102;20.010;2023-03-13T05:41:10;6.40;;;6.00;;
16804;SDS011;8520;50.102;20.010;2023-03-13T05:43:57;7.07;;;6.37;;
16804;SDS011;8520;50.102;20.010;2023-03-13T05:46:49;6.37;;;5.97;;
16804;SDS011;8520;50.102;20.010;2023-03-13T05:49:36;6.37;;;5.97;;
16804;SDS011;8520;50.102;20.010;2023-03-13T05:52:24;6.50;;;6.00;;
16804;SDS011;8520;50.102;20.010;2023-03-13T05:55:12;6.67;;;6.17;;
16804;SDS011;8520;50.102;20.010;2023-03-13T05:57:42;7.10;;;6.60;;
16804;SDS011;8520;50.102;20.010;2023-03-13T06:00:30;6.33;;;5.90;;
16804;SDS011;8520;50.102;20.010;2023-03-13T06:03:22;6.50;;;6.00;;
16804;SDS011;8520;50.102;20.010;2023-03-13T06:05:55;6.50;;;6.10;;
16804;SDS011;8520;50.102;20.010;2023-03-13T06:08:35;6.93;;;6.53;;
16804;SDS011;8520;50.102;20.010;2023-03-13T06:11:04;7.00;;;6.40;;
16804;SDS011;8520;50.102;20.010;2023-03-13T06:13:32;6.77;;;6.37;;
16804;SDS011;8520;50.102;20.010;2023-03-13T06:16:22;7.40;;;6.70;;
16804;SDS011;8520;50.102;20.010;2023-03-13T06:18:55;7.60;;;6.90;;
16804;SDS011;8520;50.102;20.010;2023-03-13T06:21:24;7.17;;;6.57;;
16804;SDS011;8520;50.102;20.010;2023-03-13T06:23:53;7.63;;;6.93;;
16804;SDS011;8520;50.102;20.010;2023-03-13T06:26:21;7.37;;;6.67;;
16804;SDS011;8520;50.102;20.010;2023-03-13T06:28:50;6.67;;;6.17;;
16804;SDS011;8520;50.102;20.010;2023-03-13T06:31:18;7.67;;;7.00;;
16804;SDS011;8520;50.102;20.010;2023-03-13T06:33:48;7.70;;;7.00;;
16804;SDS011;8520;50.102;20.010;2023-03-13T06:36:20;7.43;;;6.80;;
16804;SDS011;8520;50.102;20.010;2023-03-13T06:38:48;7.03;;;6.53;;
16804;SDS011;8520;50.102;20.010;2023-03-13T06:41:16;7.57;;;6.83;;
16804;SDS011;8520;50.102;20.010;2023-03-13T06:43:45;7.77;;;7.07;;
16804;SDS011;8520;50.102;20.010;2023-03-13T06:46:15;7.97;;;7.23;;
16804;SDS011;8520;50.102;20.010;2023-03-13T06:48:44;7.40;;;6.80;;
16804;SDS011;8520;50.102;20.010;2023-03-13T06:51:15;6.90;;;6.40;;
16804;SDS011;8520;50.102;20.010;2023-03-13T06:53:45;7.60;;;7.00;;
16804;SDS011;8520;50.102;20.010;2023-03-13T06:56:13;7.63;;;6.77;;
16804;SDS011;8520;50.102;20.010;2023-03-13T06:58:42;8.17;;;6.87;;
16804;SDS011;8520;50.102;20.010;2023-03-13T07:01:13;9.17;;;7.27;;
16804;SDS011;8520;50.102;20.010;2023-03-13T07:03:43;7.87;;;6.73;;
16804;SDS011;8520;50.102;20.010;2023-03-13T07:06:16;7.37;;;6.00;;
16804;SDS011;8520;50.102;20.010;2023-03-13T07:08:44;7.73;;;6.83;;
16804;SDS011;8520;50.102;20.010;2023-03-13T07:11:13;7.73;;;6.67;;
16804;SDS011;8520;50.102;20.010;2023-03-13T07:13:41;7.03;;;6.07;;
16804;SDS011;8520;50.102;20.010;2023-03-13T07:16:11;6.83;;;5.97;;
16804;SDS011;8520;50.102;20.010;2023-03-13T07:18:40;5.93;;;5.43;;
16804;SDS011;8520;50.102;20.010;2023-03-13T07:21:10;8.10;;;6.20;;
16804;SDS011;8520;50.102;20.010;2023-03-13T07:23:40;7.90;;;5.40;;
16804;SDS011;8520;50.102;20.010;2023-03-13T07:26:09;8.93;;;6.03;;
16804;SDS011;8520;50.102;20.010;2023-03-13T07:28:41;7.90;;;6.00;;
16804;SDS011;8520;50.102;20.010;2023-03-13T07:31:10;9.37;;;5.80;;
16804;SDS011;8520;50.102;20.010;2023-03-13T07:33:40;5.67;;;4.93;;
16804;SDS011;8520;50.102;20.010;2023-03-13T07:36:08;8.40;;;5.30;;
16804;SDS011;8520;50.102;20.010;2023-03-13T07:38:38;5.10;;;4.60;;
16804;SDS011;8520;50.102;20.010;2023-03-13T07:41:12;6.13;;;4.77;;
16804;SDS011;8520;50.102;20.010;2023-03-13T07:43:40;6.10;;;5.20;;
16804;SDS011;8520;50.102;20.010;2023-03-13T07:46:10;5.70;;;5.00;;
16804;SDS011;8520;50.102;20.010;2023-03-13T07:48:40;7.33;;;5.70;;
16804;SDS011;8520;50.102;20.010;2023-03-13T07:51:10;8.80;;;5.30;;
16804;SDS011;8520;50.102;20.010;2023-03-13T07:53:40;8.73;;;5.47;;
16804;SDS011;8520;50.102;20.010;2023-03-13T07:56:09;5.97;;;5.30;;
16804;SDS011;8520;50.102;20.010;2023-03-13T07:58:40;7.90;;;5.60;;
16804;SDS011;8520;50.102;20.010;2023-03-13T08:01:09;7.23;;;4.93;;
16804;SDS011;8520;50.102;20.010;2023-03-13T08:03:39;7.30;;;5.13;;
16804;SDS011;8520;50.102;20.010;2023-03-13T08:06:08;7.73;;;5.13;;
16804;SDS011;8520;50.102;20.010;2023-03-13T08:08:37;10.23;;;5.50;;
16804;SDS011;8520;50.102;20.010;2023-03-13T08:11:06;7.37;;;5.30;;
16804;SDS011;8520;50.102;20.010;2023-03-13T08:13:35;6.60;;;4.83;;
16804;SDS011;8520;50.102;20.010;2023-03-13T08:16:06;6.07;;;4.23;;
16804;SDS011;8520;50.102;20.010;2023-03-13T08:18:37;5.90;;;4.10;;
16804;SDS011;8520;50.102;20.010;2023-03-13T08:21:08;6.07;;;4.37;;
16804;SDS011;8520;50.102;20.010;2023-03-13T08:23:37;6.10;;;4.27;;
16804;SDS011;8520;50.102;20.010;2023-03-13T08:26:06;5.57;;;4.50;;
16804;SDS011;8520;50.102;20.010;2023-03-13T08:28:36;5.10;;;4.50;;
16804;SDS011;8520;50.102;20.010;2023-03-13T08:31:07;5.47;;;4.20;;
16804;SDS011;8520;50.102;20.010;2023-03-13T08:33:36;5.63;;;3.90;;
16804;SDS011;8520;50.102;20.010;2023-03-13T08:36:09;5.33;;;4.40;;
16804;SDS011;8520;50.102;20.010;2023-03-13T08:38:38;5.97;;;4.50;;
16804;SDS011;8520;50.102;20.010;2023-03-13T08:41:11;5.40;;;4.80;;
16804;SDS011;8520;50.102;20.010;2023-03-13T08:43:40;6.67;;;4.23;;
16804;SDS011;8520;50.102;20.010;2023-03-13T08:46:10;6.50;;;4.23;;
16804;SDS011;8520;50.102;20.010;2023-03-13T08:48:39;6.30;;;4.30;;
16804;SDS011;8520;50.102;20.010;2023-03-13T08:51:08;5.73;;;4.63;;
16804;SDS011;8520;50.102;20.010;2023-03-13T08:53:38;5.10;;;4.57;;
16804;SDS011;8520;50.102;20.010;2023-03-13T08:56:08;7.37;;;4.17;;
16804;SDS011;8520;50.102;20.010;2023-03-13T08:58:37;6.93;;;4.33;;
16804;SDS011;8520;50.102;20.010;2023-03-13T09:01:06;5.13;;;4.40;;
16804;SDS011;8520;50.102;20.010;2023-03-13T09:03:36;7.40;;;4.03;;
16804;SDS011;8520;50.102;20.010;2023-03-13T09:06:06;6.07;;;4.40;;
16804;SDS011;8520;50.102;20.010;2023-03-13T09:08:35;7.23;;;3.87;;
16804;SDS011;8520;50.102;20.010;2023-03-13T09:11:05;5.70;;;4.53;;
16804;SDS011;8520;50.102;20.010;2023-03-13T09:13:35;6.07;;;4.47;;
16804;SDS011;8520;50.102;20.010;2023-03-13T09:16:05;6.53;;;4.00;;
16804;SDS011;8520;50.102;20.010;2023-03-13T09:18:37;5.30;;;4.23;;
16804;SDS011;8520;50.102;20.010;2023-03-13T09:21:06;5.87;;;4.20;;
16804;SDS011;8520;50.102;20.010;2023-03-13T09:23:35;7.47;;;4.07;;
16804;SDS011;8520;50.102;20.010;2023-03-13T09:26:04;5.83;;;3.90;;
16804;SDS011;8520;50.102;20.010;2023-03-13T09:28:33;7.33;;;4.50;;
16804;SDS011;8520;50.102;20.010;2023-03-13T09:31:07;6.43;;;4.40;;
16804;SDS011;8520;50.102;20.010;2023-03-13T09:33:38;6.63;;;3.97;;
16804;SDS011;8520;50.102;20.010;2023-03-13T09:36:07;5.13;;;3.73;;
16804;SDS011;8520;50.102;20.010;2023-03-13T09:38:36;5.40;;;4.10;;
16804;SDS011;8520;50.102;20.010;2023-03-13T09:41:10;8.10;;;4.10;;
16804;SDS011;8520;50.102;20.010;2023-03-13T09:43:49;6.73;;;3.73;;
16804;SDS011;8520;50.102;20.010;2023-03-13T09:46:22;7.60;;;4.37;;
16804;SDS011;8520;50.102;20.010;2023-03-13T09:48:55;6.13;;;3.57;;
16804;SDS011;8520;50.102;20.010;2023-03-13T09:51:27;5.87;;;3.57;;
16804;SDS011;8520;50.102;20.010;2023-03-13T09:53:58;5.13;;;3.47;;
16804;SDS011;8520;50.102;20.010;2023-03-13T09:56:33;4.20;;;3.20;;
16804;SDS011;8520;50.102;20.010;2023-03-13T09:59:10;4.30;;;2.90;;
16804;SDS011;8520;50.102;20.010;2023-03-13T10:01:44;4.10;;;2.80;;
16804;SDS011;8520;50.102;20.010;2023-03-13T10:04:28;4.87;;;3.20;;
16804;SDS011;8520;50.102;20.010;2023-03-13T10:07:02;4.30;;;3.23;;
16804;SDS011;8520;50.102;20.010;2023-03-13T10:09:31;5.23;;;3.47;;
16804;SDS011;8520;50.102;20.010;2023-03-13T10:12:04;4.13;;;3.13;;
16804;SDS011;8520;50.102;20.010;2023-03-13T10:14:41;5.60;;;3.53;;
16804;SDS011;8520;50.102;20.010;2023-03-13T10:17:17;3.50;;;2.87;;
16804;SDS011;8520;50.102;20.010;2023-03-13T10:19:55;4.10;;;3.53;;
16804;SDS011;8520;50.102;20.010;2023-03-13T10:22:26;5.47;;;3.33;;
16804;SDS011;8520;50.102;20.010;2023-03-13T10:24:58;4.90;;;3.70;;
16804;SDS011;8520;50.102;20.010;2023-03-13T10:27:31;5.03;;;3.30;;
16804;SDS011;8520;50.102;20.010;2023-03-13T10:30:12;4.57;;;3.10;;
16804;SDS011;8520;50.102;20.010;2023-03-13T10:32:48;3.83;;;3.27;;
16804;SDS011;8520;50.102;20.010;2023-03-13T10:35:21;3.83;;;3.00;;
16804;SDS011;8520;50.102;20.010;2023-03-13T10:37:50;5.63;;;3.20;;
16804;SDS011;8520;50.102;20.010;2023-03-13T10:40:29;3.70;;;2.83;;
16804;SDS011;8520;50.102;20.010;2023-03-13T10:43:01;3.67;;;2.93;;
16804;SDS011;8520;50.102;20.010;2023-03-13T10:45:32;5.47;;;3.30;;
16804;SDS011;8520;50.102;20.010;2023-03-13T10:48:03;3.45;;;2.83;;
16804;SDS011;8520;50.102;20.010;2023-03-13T10:50:42;3.10;;;2.40;;
16804;SDS011;8520;50.102;20.010;2023-03-13T10:53:22;4.57;;;3.10;;
16804;SDS011;8520;50.102;20.010;2023-03-13T10:55:59;5.75;;;3.15;;
16804;SDS011;8520;50.102;20.010;2023-03-13T10:58:39;4.85;;;2.92;;
16804;SDS011;8520;50.102;20.010;2023-03-13T11:01:20;5.88;;;3.28;;
16804;SDS011;8520;50.102;20.010;2023-03-13T11:03:50;3.67;;;2.70;;
16804;SDS011;8520;50.102;20.010;2023-03-13T11:06:25;4.85;;;2.75;;
16804;SDS011;8520;50.102;20.010;2023-03-13T11:08:59;4.18;;;2.70;;
16804;SDS011;8520;50.102;20.010;2023-03-13T11:11:42;5.38;;;3.00;;
16804;SDS011;8520;50.102;20.010;2023-03-13T11:14:16;3.47;;;2.53;;
16804;SDS011;8520;50.102;20.010;2023-03-13T11:16:46;4.75;;;2.88;;
16804;SDS011;8520;50.102;20.010;2023-03-13T11:25:03;4.78;;;2.63;;
16804;SDS011;8520;50.102;20.010;2023-03-13T11:27:45;3.65;;;2.80;;
16804;SDS011;8520;50.102;20.010;2023-03-13T11:30:26;3.15;;;2.75;;
16804;SDS011;8520;50.102;20.010;2023-03-13T11:33:09;3.90;;;2.08;;
16804;SDS011;8520;50.102;20.010;2023-03-13T11:35:47;2.92;;;2.20;;
16804;SDS011;8520;50.102;20.010;2023-03-13T11:38:21;5.65;;;2.53;;
16804;SDS011;8520;50.102;20.010;2023-03-13T11:40:58;3.70;;;2.65;;
16804;SDS011;8520;50.102;20.010;2023-03-13T11:43:35;2.75;;;2.35;;
16804;SDS011;8520;50.102;20.010;2023-03-13T11:46:20;3.90;;;2.50;;
16804;SDS011;8520;50.102;20.010;2023-03-13T11:52:21;2.90;;;2.00;;
16804;SDS011;8520;50.102;20.010;2023-03-13T11:55:06;2.60;;;2.40;;
16804;SDS011;8520;50.102;20.010;2023-03-13T11:57:55;3.97;;;2.50;;
16804;SDS011;8520;50.102;20.010;2023-03-13T12:00:33;3.75;;;2.45;;
16804;SDS011;8520;50.102;20.010;2023-03-13T12:03:05;3.88;;;2.00;;
16804;SDS011;8520;50.102;20.010;2023-03-13T12:05:42;3.05;;;2.30;;
16804;SDS011;8520;50.102;20.010;2023-03-13T12:08:15;4.07;;;1.90;;
16804;SDS011;8520;50.102;20.010;2023-03-13T12:10:49;4.63;;;2.53;;
16804;SDS011;8520;50.102;20.010;2023-03-13T12:13:27;3.13;;;2.08;;
16804;SDS011;8520;50.102;20.010;2023-03-13T12:15:59;2.17;;;2.03;;
16804;SDS011;8520;50.102;20.010;2023-03-13T12:18:33;3.42;;;2.08;;
16804;SDS011;8520;50.102;20.010;2023-03-13T12:21:06;2.28;;;1.85;;
16804;SDS011;8520;50.102;20.010;2023-03-13T12:23:45;2.72;;;2.15;;
16804;SDS011;8520;50.102;20.010;2023-03-13T12:26:19;2.17;;;1.90;;
16804;SDS011;8520;50.102;20.010;2023-03-13T12:28:56;3.42;;;2.20;;
16804;SDS011;8520;50.102;20.010;2023-03-13T12:31:33;3.35;;;2.30;;
16804;SDS011;8520;50.102;20.010;2023-03-13T12:34:08;2.53;;;1.90;;
16804;SDS011;8520;50.102;20.010;2023-03-13T12:36:43;2.20;;;2.00;;
16804;SDS011;8520;50.102;20.010;2023-03-13T12:39:19;3.13;;;1.75;;
16804;SDS011;8520;50.102;20.010;2023-03-13T12:41:56;2.60;;;1.80;;
16804;SDS011;8520;50.102;20.010;2023-03-13T12:44:37;1.98;;;1.70;;
16804;SDS011;8520;50.102;20.010;2023-03-13T12:47:07;1.92;;;1.63;;
16804;SDS011;8520;50.102;20.010;2023-03-13T12:52:58;4.05;;;2.10;;
16804;SDS011;8520;50.102;20.010;2023-03-13T12:55:51;5.95;;;2.28;;
16804;SDS011;8520;50.102;20.010;2023-03-13T12:58:36;1.92;;;1.73;;
16804;SDS011;8520;50.102;20.010;2023-03-13T13:01:09;2.42;;;1.90;;
16804;SDS011;8520;50.102;20.010;2023-03-13T13:03:46;1.73;;;1.63;;
16804;SDS011;8520;50.102;20.010;2023-03-13T13:06:19;2.83;;;2.10;;
16804;SDS011;8520;50.102;20.010;2023-03-13T13:08:47;1.73;;;1.63;;
16804;SDS011;8520;50.102;20.010;2023-03-13T13:11:45;2.50;;;1.83;;
16804;SDS011;8520;50.102;20.010;2023-03-13T13:17:23;2.03;;;1.83;;
16804;SDS011;8520;50.102;20.010;2023-03-13T13:19:57;1.90;;;1.80;;
16804;SDS011;8520;50.102;20.010;2023-03-13T13:22:44;1.75;;;1.65;;
16804;SDS011;8520;50.102;20.010;2023-03-13T13:25:31;2.47;;;1.80;;
16804;SDS011;8520;50.102;20.010;2023-03-13T13:28:11;1.90;;;1.70;;
16804;SDS011;8520;50.102;20.010;2023-03-13T13:31:04;2.22;;;2.03;;
16804;SDS011;8520;50.102;20.010;2023-03-13T13:37:25;2.35;;;1.80;;
16804;SDS011;8520;50.102;20.010;2023-03-13T13:40:08;1.95;;;1.70;;
16804;SDS011;8520;50.102;20.010;2023-03-13T13:42:46;3.92;;;1.70;;
16804;SDS011;8520;50.102;20.010;2023-03-13T13:45:20;2.10;;;1.90;;
16804;SDS011;8520;50.102;20.010;2023-03-13T13:48:14;2.00;;;1.90;;
16804;SDS011;8520;50.102;20.010;2023-03-13T13:53:51;2.45;;;2.30;;
16804;SDS011;8520;50.102;20.010;2023-03-13T13:59:22;2.45;;;2.25;;
16804;SDS011;8520;50.102;20.010;2023-03-13T14:02:16;2.10;;;2.00;;
16804;SDS011;8520;50.102;20.010;2023-03-13T14:07:44;2.40;;;2.20;;
16804;SDS011;8520;50.102;20.010;2023-03-13T14:10:20;2.67;;;2.40;;
16804;SDS011;8520;50.102;20.010;2023-03-13T14:12:56;2.67;;;2.13;;
16804;SDS011;8520;50.102;20.010;2023-03-13T14:15:26;1.90;;;1.80;;
16804;SDS011;8520;50.102;20.010;2023-03-13T14:17:56;2.40;;;2.30;;
16804;SDS011;8520;50.102;20.010;2023-03-13T14:20:28;2.77;;;2.10;;
16804;SDS011;8520;50.102;20.010;2023-03-13T14:22:59;3.33;;;2.27;;
16804;SDS011;8520;50.102;20.010;2023-03-13T14:25:41;2.20;;;2.10;;
16804;SDS011;8520;50.102;20.010;2023-03-13T14:28:15;2.53;;;2.33;;
16804;SDS011;8520;50.102;20.010;2023-03-13T14:30:46;2.70;;;2.30;;
16804;SDS011;8520;50.102;20.010;2023-03-13T14:33:15;3.43;;;2.20;;
16804;SDS011;8520;50.102;20.010;2023-03-13T14:35:44;2.23;;;2.13;;
16804;SDS011;8520;50.102;20.010;2023-03-13T14:38:14;2.10;;;2.00;;
16804;SDS011;8520;50.102;20.010;2023-03-13T14:40:46;2.30;;;2.17;;
16804;SDS011;8520;50.102;20.010;2023-03-13T14:43:19;2.20;;;2.00;;
16804;SDS011;8520;50.102;20.010;2023-03-13T14:45:52;2.50;;;2.30;;
16804;SDS011;8520;50.102;20.010;2023-03-13T14:48:21;2.40;;;2.20;;
16804;SDS011;8520;50.102;20.010;2023-03-13T14:50:53;2.50;;;2.30;;
16804;SDS011;8520;50.102;20.010;2023-03-13T14:53:52;2.20;;;2.10;;
16804;SDS011;8520;50.102;20.010;2023-03-13T14:56:30;2.53;;;2.27;;
16804;SDS011;8520;50.102;20.010;2023-03-13T14:59:12;2.40;;;2.30;;
16804;SDS011;8520;50.102;20.010;2023-03-13T15:01:43;2.50;;;2.30;;
16804;SDS011;8520;50.102;20.010;2023-03-13T15:04:12;2.40;;;2.30;;
16804;SDS011;8520;50.102;20.010;2023-03-13T15:06:40;2.40;;;2.30;;
16804;SDS011;8520;50.102;20.010;2023-03-13T15:09:16;3.73;;;2.13;;
16804;SDS011;8520;50.102;20.010;2023-03-13T15:11:54;2.73;;;2.53;;
16804;SDS011;8520;50.102;20.010;2023-03-13T15:14:31;2.20;;;2.10;;
16804;SDS011;8520;50.102;20.010;2023-03-13T15:17:01;2.00;;;1.90;;
16804;SDS011;8520;50.102;20.010;2023-03-13T15:19:30;3.00;;;2.43;;
16804;SDS011;8520;50.102;20.010;2023-03-13T15:21:58;2.57;;;2.47;;
16804;SDS011;8520;50.102;20.010;2023-03-13T15:24:27;2.47;;;2.27;;
16804;SDS011;8520;50.102;20.010;2023-03-13T15:26:56;3.57;;;2.70;;
16804;SDS011;8520;50.102;20.010;2023-03-13T15:29:24;2.90;;;2.70;;
16804;SDS011;8520;50.102;20.010;2023-03-13T15:31:52;3.70;;;2.87;;
16804;SDS011;8520;50.102;20.010;2023-03-13T15:34:20;2.77;;;2.53;;
16804;SDS011;8520;50.102;20.010;2023-03-13T15:36:50;2.77;;;2.57;;
16804;SDS011;8520;50.102;20.010;2023-03-13T15:39:22;2.50;;;2.30;;
16804;SDS011;8520;50.102;20.010;2023-03-13T15:41:53;2.70;;;2.50;;
16804;SDS011;8520;50.102;20.010;2023-03-13T15:44:23;2.90;;;2.70;;
16804;SDS011;8520;50.102;20.010;2023-03-13T15:46:51;2.67;;;2.40;;
16804;SDS011;8520;50.102;20.010;2023-03-13T15:49:19;4.07;;;2.73;;
16804;SDS011;8520;50.102;20.010;2023-03-13T15:51:47;3.90;;;2.77;;
16804;SDS011;8520;50.102;20.010;2023-03-13T15:54:16;2.80;;;2.60;;